To NAV CANADA Home Page Login to a new session Search on AWWS site Disclaimer Vers la page française équivalente Tips FAQ What's new on the site To the Forecasts and Observations / NOTAM section To "File a Flight Plan" website Publications and other links Update of the User's profile FIC Telephone Numbers My Weather Data Folder Route Weather Data Regional Weather Data Local Weather Data To the Forecasts and Observations / NOTAM section
Request Generated 11/13/2018 at 18:15:43 UTC . Weather information available at that time is displayed.

METAR/TAF

NIPAWIN/SK    (show WxCam)

SPECI CYBU 131810Z AUTO 10004KT 5SM -SN BKN037 OVC046 M08/M10 A3019 RMK SLP258=
METAR CYBU 131800Z AUTO 09005KT 9SM -SN OVC040 M08/M10 A3019 RMK SLP257=
SPECI CYBU 131746Z AUTO 09005KT 6SM -SN OVC036 M08/M10 A3019 RMK SLP258=
SPECI CYBU 131725Z AUTO 10004KT 3SM -SN OVC030 M08/M10 A3020 RMK SLP259=
METAR CYBU 131700Z AUTO 09004KT 2 1/2SM -SN BKN034 OVC047 M08/M10 A3019 RMK SLP258=
SPECI CYBU 131659Z AUTO 09004KT 2 1/2SM -SN FEW030 BKN036 OVC047 M08/M10 A3019 RMK SLP258=
SPECI CYBU 131655Z AUTO 10004KT 5SM -SN BKN036 BKN047 OVC065 M08/M11 A3019 RMK SLP258=
SPECI CYBU 131642Z AUTO 12003KT 9SM -SN SCT050 BKN070 BKN094 M08/M11 A3020 RMK SLP259=
SPECI CYBU 131627Z AUTO 09004KT 9SM FEW075 SCT091 SCT120 M08/M11 A3019 RMK SLP258=
SPECI CYBU 131610Z AUTO 10005KT 9SM -SN FEW050 SCT120 M09/M11 A3019 RMK SLP257=
METAR CYBU 131600Z AUTO 11005KT 9SM SCT050 BKN110 M09/M11 A3019 RMK SLP257=

CYBU - No TAF is issued for this station

Your time UTC time
Weather data provided by Environment Canada and NAV CANADA